Strona główna
Zdjęcia satelitarne 15-dni prognozyKlimatMeteorologia morska Cyklony Błyskawica LotniskoFAQ Gazetka O
Pogoda : Europa Afryka Ameryka Północna Ameryka Południowa Azja Australia-Oceania Inny
Języki Kontakt

Doncaster Sheffield, Anglia

Robin Hood

Szerokość geograficzna: 53-29N, Długość geograficzna: 001-00W, wysokość: 17 m


METAR: EGCN 231220Z 28005KT 9999 FEW032 09/07 Q1017
TAF: EGCN 231102Z 2312/2321 30008KT 9999 SCT030

czas: 12:54 (12:54 UTC)

Aktualna obserwacja pogody

Raport powstał 34 minut temu, godzina 12:20 UTC
Wiatr 5 kt od zachód
Temperatura 9°C
Wilgotność 87%
Ciśnienie 1017 hPa
Widzialność 10 km lub więcej
Mało chmury na wysokości 3200 ft

Jednostka miary

Prognoza

Raport powstał 1 godzina i 52 minut temu, godzina 11:02 UTC
Prognoza ważna od 23 godzina 12 UTC do 23 godzina 21 UTC
Wiatr 8 kt od zachodnio-północny zachód
Widzialność 10 km lub więcej
Rozproszone chmury na wysokości 3000 ft
Informacje na tej stronie internetowej podlegają klauzuli o wyłączeniu odpowiedzialności
Pogoda : Europa Afryka Ameryka Północna Ameryka Południowa Azja Australia-Oceania Inny
Zdjęcia satelitarne 15-dni prognozyKlimatMeteorologia morska Cyklony Błyskawica LotniskoFAQ Języki Kontakt Gazetka O